sensor_id;sensor_type;location;lat;lon;timestamp;temperature;humidity
18733;DHT22;9495;51.210;2.934;2024-01-07T00:01:13;7.60;99.90
18733;DHT22;9495;51.210;2.934;2024-01-07T00:03:42;7.30;99.90
18733;DHT22;9495;51.210;2.934;2024-01-07T00:06:11;7.10;99.90
18733;DHT22;9495;51.210;2.934;2024-01-07T00:08:40;6.80;99.90
18733;DHT22;9495;51.210;2.934;2024-01-07T00:11:08;6.60;99.90
18733;DHT22;9495;51.210;2.934;2024-01-07T00:13:37;6.60;99.90
18733;DHT22;9495;51.210;2.934;2024-01-07T00:16:05;6.30;99.90
18733;DHT22;9495;51.210;2.934;2024-01-07T00:18:34;6.40;99.90
18733;DHT22;9495;51.210;2.934;2024-01-07T00:21:04;6.30;99.90
18733;DHT22;9495;51.210;2.934;2024-01-07T00:23:33;6.20;99.90
18733;DHT22;9495;51.210;2.934;2024-01-07T00:26:02;6.20;99.90
18733;DHT22;9495;51.210;2.934;2024-01-07T00:28:31;6.80;99.90
18733;DHT22;9495;51.210;2.934;2024-01-07T00:30:59;7.10;99.90
18733;DHT22;9495;51.210;2.934;2024-01-07T00:33:28;7.20;99.90
18733;DHT22;9495;51.210;2.934;2024-01-07T00:35:57;6.90;99.90
18733;DHT22;9495;51.210;2.934;2024-01-07T00:38:26;6.70;99.90
18733;DHT22;9495;51.210;2.934;2024-01-07T00:40:55;6.80;99.90
18733;DHT22;9495;51.210;2.934;2024-01-07T00:43:23;6.70;99.90
18733;DHT22;9495;51.210;2.934;2024-01-07T00:45:51;6.60;99.90
18733;DHT22;9495;51.210;2.934;2024-01-07T00:48:20;6.50;99.90
18733;DHT22;9495;51.210;2.934;2024-01-07T00:50:49;6.80;99.90
18733;DHT22;9495;51.210;2.934;2024-01-07T00:53:17;6.60;99.90
18733;DHT22;9495;51.210;2.934;2024-01-07T00:55:47;6.70;99.90
18733;DHT22;9495;51.210;2.934;2024-01-07T00:58:16;6.80;99.90
18733;DHT22;9495;51.210;2.934;2024-01-07T01:00:45;6.80;99.90
18733;DHT22;9495;51.210;2.934;2024-01-07T01:03:14;6.60;99.90
18733;DHT22;9495;51.210;2.934;2024-01-07T01:05:42;6.70;99.90
18733;DHT22;9495;51.210;2.934;2024-01-07T01:08:11;6.60;99.90
18733;DHT22;9495;51.210;2.934;2024-01-07T01:10:40;6.70;99.90
18733;DHT22;9495;51.210;2.934;2024-01-07T01:13:09;6.80;99.90
18733;DHT22;9495;51.210;2.934;2024-01-07T01:15:38;7.20;99.90
18733;DHT22;9495;51.210;2.934;2024-01-07T01:18:06;7.10;99.90
18733;DHT22;9495;51.210;2.934;2024-01-07T01:20:35;7.10;99.90
18733;DHT22;9495;51.210;2.934;2024-01-07T01:23:04;7.60;99.90
18733;DHT22;9495;51.210;2.934;2024-01-07T01:25:32;7.20;99.90
18733;DHT22;9495;51.210;2.934;2024-01-07T01:28:03;7.40;99.90
18733;DHT22;9495;51.210;2.934;2024-01-07T01:30:33;7.90;99.90
18733;DHT22;9495;51.210;2.934;2024-01-07T01:33:01;7.90;99.90
18733;DHT22;9495;51.210;2.934;2024-01-07T01:35:30;7.80;99.90
18733;DHT22;9495;51.210;2.934;2024-01-07T01:37:59;8.00;99.90
18733;DHT22;9495;51.210;2.934;2024-01-07T01:40:27;7.80;99.90
18733;DHT22;9495;51.210;2.934;2024-01-07T01:42:56;7.60;99.90
18733;DHT22;9495;51.210;2.934;2024-01-07T01:45:24;8.30;99.90
18733;DHT22;9495;51.210;2.934;2024-01-07T01:47:54;7.90;99.90
18733;DHT22;9495;51.210;2.934;2024-01-07T01:50:24;7.90;99.90
18733;DHT22;9495;51.210;2.934;2024-01-07T01:52:53;7.70;99.90
18733;DHT22;9495;51.210;2.934;2024-01-07T01:55:23;8.40;99.90
18733;DHT22;9495;51.210;2.934;2024-01-07T01:57:53;8.00;99.90
18733;DHT22;9495;51.210;2.934;2024-01-07T02:00:23;8.10;99.90
18733;DHT22;9495;51.210;2.934;2024-01-07T02:02:52;8.50;99.90
18733;DHT22;9495;51.210;2.934;2024-01-07T02:05:22;9.10;99.90
18733;DHT22;9495;51.210;2.934;2024-01-07T02:07:50;8.70;99.90
18733;DHT22;9495;51.210;2.934;2024-01-07T02:10:19;9.20;99.90
18733;DHT22;9495;51.210;2.934;2024-01-07T02:12:47;8.60;99.90
18733;DHT22;9495;51.210;2.934;2024-01-07T02:15:16;8.40;99.90
18733;DHT22;9495;51.210;2.934;2024-01-07T02:17:45;8.10;99.90
18733;DHT22;9495;51.210;2.934;2024-01-07T02:20:14;8.00;99.90
18733;DHT22;9495;51.210;2.934;2024-01-07T02:22:42;7.90;99.90
18733;DHT22;9495;51.210;2.934;2024-01-07T02:25:12;8.10;99.90
18733;DHT22;9495;51.210;2.934;2024-01-07T02:27:41;8.00;99.90
18733;DHT22;9495;51.210;2.934;2024-01-07T02:30:10;7.60;99.90
18733;DHT22;9495;51.210;2.934;2024-01-07T02:32:39;7.70;99.90
18733;DHT22;9495;51.210;2.934;2024-01-07T02:35:08;8.50;99.90
18733;DHT22;9495;51.210;2.934;2024-01-07T02:37:36;7.80;99.90
18733;DHT22;9495;51.210;2.934;2024-01-07T02:40:06;7.80;99.90
18733;DHT22;9495;51.210;2.934;2024-01-07T02:42:35;7.30;99.90
18733;DHT22;9495;51.210;2.934;2024-01-07T02:45:04;7.60;99.90
18733;DHT22;9495;51.210;2.934;2024-01-07T02:47:33;8.30;99.90
18733;DHT22;9495;51.210;2.934;2024-01-07T02:50:01;7.90;99.90
18733;DHT22;9495;51.210;2.934;2024-01-07T02:52:30;8.90;99.90
18733;DHT22;9495;51.210;2.934;2024-01-07T02:54:59;8.60;99.90
18733;DHT22;9495;51.210;2.934;2024-01-07T02:57:28;8.30;99.90
18733;DHT22;9495;51.210;2.934;2024-01-07T02:59:58;7.70;99.90
18733;DHT22;9495;51.210;2.934;2024-01-07T03:02:27;7.60;99.90
18733;DHT22;9495;51.210;2.934;2024-01-07T03:04:55;7.40;99.90
18733;DHT22;9495;51.210;2.934;2024-01-07T03:07:24;7.50;99.90
18733;DHT22;9495;51.210;2.934;2024-01-07T03:09:53;7.70;99.90
18733;DHT22;9495;51.210;2.934;2024-01-07T03:12:21;7.20;99.90
18733;DHT22;9495;51.210;2.934;2024-01-07T03:14:52;7.00;99.90
18733;DHT22;9495;51.210;2.934;2024-01-07T03:17:21;6.80;99.90
18733;DHT22;9495;51.210;2.934;2024-01-07T03:19:51;7.50;99.90
18733;DHT22;9495;51.210;2.934;2024-01-07T03:22:20;7.40;99.90
18733;DHT22;9495;51.210;2.934;2024-01-07T03:24:48;7.00;99.90
18733;DHT22;9495;51.210;2.934;2024-01-07T03:27:17;7.10;99.90
18733;DHT22;9495;51.210;2.934;2024-01-07T03:29:45;7.70;99.90
18733;DHT22;9495;51.210;2.934;2024-01-07T03:32:13;7.00;99.90
18733;DHT22;9495;51.210;2.934;2024-01-07T03:34:43;7.20;99.90
18733;DHT22;9495;51.210;2.934;2024-01-07T03:37:12;7.60;99.90
18733;DHT22;9495;51.210;2.934;2024-01-07T03:39:40;7.70;99.90
18733;DHT22;9495;51.210;2.934;2024-01-07T03:42:09;7.70;99.90
18733;DHT22;9495;51.210;2.934;2024-01-07T03:44:39;8.50;99.90
18733;DHT22;9495;51.210;2.934;2024-01-07T03:47:08;8.90;99.90
18733;DHT22;9495;51.210;2.934;2024-01-07T03:49:36;8.30;99.90
18733;DHT22;9495;51.210;2.934;2024-01-07T03:52:07;7.60;99.90
18733;DHT22;9495;51.210;2.934;2024-01-07T03:54:36;7.80;99.90
18733;DHT22;9495;51.210;2.934;2024-01-07T03:57:05;7.90;99.90
18733;DHT22;9495;51.210;2.934;2024-01-07T03:59:33;7.30;99.90
18733;DHT22;9495;51.210;2.934;2024-01-07T04:02:02;7.20;99.90
18733;DHT22;9495;51.210;2.934;2024-01-07T04:04:31;8.00;99.90
18733;DHT22;9495;51.210;2.934;2024-01-07T04:06:59;7.60;99.90
18733;DHT22;9495;51.210;2.934;2024-01-07T04:09:29;7.20;99.90
18733;DHT22;9495;51.210;2.934;2024-01-07T04:11:57;7.00;99.90
18733;DHT22;9495;51.210;2.934;2024-01-07T04:14:26;6.60;99.90
18733;DHT22;9495;51.210;2.934;2024-01-07T04:16:55;7.20;99.90
18733;DHT22;9495;51.210;2.934;2024-01-07T04:19:23;7.20;99.90
18733;DHT22;9495;51.210;2.934;2024-01-07T04:21:52;7.30;99.90
18733;DHT22;9495;51.210;2.934;2024-01-07T04:24:21;7.40;99.90
18733;DHT22;9495;51.210;2.934;2024-01-07T04:26:50;7.90;99.90
18733;DHT22;9495;51.210;2.934;2024-01-07T04:29:19;7.40;99.90
18733;DHT22;9495;51.210;2.934;2024-01-07T04:31:48;7.40;99.90
18733;DHT22;9495;51.210;2.934;2024-01-07T04:34:17;7.80;99.90
18733;DHT22;9495;51.210;2.934;2024-01-07T04:36:45;7.60;99.90
18733;DHT22;9495;51.210;2.934;2024-01-07T04:39:15;7.70;99.90
18733;DHT22;9495;51.210;2.934;2024-01-07T04:41:43;8.00;99.90
18733;DHT22;9495;51.210;2.934;2024-01-07T04:44:13;7.60;99.90
18733;DHT22;9495;51.210;2.934;2024-01-07T04:46:42;7.60;99.90
18733;DHT22;9495;51.210;2.934;2024-01-07T04:49:10;8.20;99.90
18733;DHT22;9495;51.210;2.934;2024-01-07T04:51:39;8.80;99.90
18733;DHT22;9495;51.210;2.934;2024-01-07T04:54:08;7.50;99.90
18733;DHT22;9495;51.210;2.934;2024-01-07T04:56:36;7.20;99.90
18733;DHT22;9495;51.210;2.934;2024-01-07T04:59:05;7.30;99.90
18733;DHT22;9495;51.210;2.934;2024-01-07T05:01:35;7.20;99.90
18733;DHT22;9495;51.210;2.934;2024-01-07T05:04:03;7.30;99.90
18733;DHT22;9495;51.210;2.934;2024-01-07T05:06:32;8.10;99.90
18733;DHT22;9495;51.210;2.934;2024-01-07T05:09:01;8.20;99.90
18733;DHT22;9495;51.210;2.934;2024-01-07T05:11:30;7.60;99.90
18733;DHT22;9495;51.210;2.934;2024-01-07T05:13:58;8.20;99.90
18733;DHT22;9495;51.210;2.934;2024-01-07T05:16:27;8.50;99.90
18733;DHT22;9495;51.210;2.934;2024-01-07T05:18:56;7.50;99.90
18733;DHT22;9495;51.210;2.934;2024-01-07T05:21:25;8.20;99.90
18733;DHT22;9495;51.210;2.934;2024-01-07T05:23:54;8.20;99.90
18733;DHT22;9495;51.210;2.934;2024-01-07T05:26:22;8.00;99.90
18733;DHT22;9495;51.210;2.934;2024-01-07T05:28:51;7.70;99.90
18733;DHT22;9495;51.210;2.934;2024-01-07T05:31:19;8.10;99.90
18733;DHT22;9495;51.210;2.934;2024-01-07T05:33:48;8.20;99.90
18733;DHT22;9495;51.210;2.934;2024-01-07T05:36:18;8.10;99.90
18733;DHT22;9495;51.210;2.934;2024-01-07T05:38:47;7.70;99.90
18733;DHT22;9495;51.210;2.934;2024-01-07T05:41:15;7.70;99.90
18733;DHT22;9495;51.210;2.934;2024-01-07T05:43:44;7.50;99.90
18733;DHT22;9495;51.210;2.934;2024-01-07T05:46:12;7.20;99.90
18733;DHT22;9495;51.210;2.934;2024-01-07T05:48:41;7.00;99.90
18733;DHT22;9495;51.210;2.934;2024-01-07T05:51:11;6.60;99.90
18733;DHT22;9495;51.210;2.934;2024-01-07T05:53:42;6.90;99.90
18733;DHT22;9495;51.210;2.934;2024-01-07T05:56:11;6.80;99.90
18733;DHT22;9495;51.210;2.934;2024-01-07T05:58:40;6.90;99.90
18733;DHT22;9495;51.210;2.934;2024-01-07T06:01:08;7.30;99.90
18733;DHT22;9495;51.210;2.934;2024-01-07T06:03:37;6.80;99.90
18733;DHT22;9495;51.210;2.934;2024-01-07T06:06:06;6.80;99.90
18733;DHT22;9495;51.210;2.934;2024-01-07T06:08:35;6.60;99.90
18733;DHT22;9495;51.210;2.934;2024-01-07T06:11:04;6.50;99.90
18733;DHT22;9495;51.210;2.934;2024-01-07T06:13:33;6.90;99.90
18733;DHT22;9495;51.210;2.934;2024-01-07T06:16:01;6.80;99.90
18733;DHT22;9495;51.210;2.934;2024-01-07T06:18:30;6.60;99.90
18733;DHT22;9495;51.210;2.934;2024-01-07T06:21:02;6.70;99.90
18733;DHT22;9495;51.210;2.934;2024-01-07T06:23:32;6.40;99.90
18733;DHT22;9495;51.210;2.934;2024-01-07T06:26:04;6.40;99.90
18733;DHT22;9495;51.210;2.934;2024-01-07T06:28:34;6.60;99.90
18733;DHT22;9495;51.210;2.934;2024-01-07T06:31:03;6.40;99.90
18733;DHT22;9495;51.210;2.934;2024-01-07T06:33:32;6.60;99.90
18733;DHT22;9495;51.210;2.934;2024-01-07T06:36:01;7.20;99.90
18733;DHT22;9495;51.210;2.934;2024-01-07T06:38:31;6.70;99.90
18733;DHT22;9495;51.210;2.934;2024-01-07T06:40:59;6.70;99.90
18733;DHT22;9495;51.210;2.934;2024-01-07T06:43:32;6.70;99.90
18733;DHT22;9495;51.210;2.934;2024-01-07T06:46:00;6.50;99.90
18733;DHT22;9495;51.210;2.934;2024-01-07T06:48:29;6.40;99.90
18733;DHT22;9495;51.210;2.934;2024-01-07T06:50:58;6.60;99.90
18733;DHT22;9495;51.210;2.934;2024-01-07T06:53:26;6.40;99.90
18733;DHT22;9495;51.210;2.934;2024-01-07T06:55:54;6.60;99.90
18733;DHT22;9495;51.210;2.934;2024-01-07T06:58:23;6.50;99.90
18733;DHT22;9495;51.210;2.934;2024-01-07T07:00:53;6.20;99.90
18733;DHT22;9495;51.210;2.934;2024-01-07T07:03:21;6.20;99.90
18733;DHT22;9495;51.210;2.934;2024-01-07T07:05:50;6.40;99.90
18733;DHT22;9495;51.210;2.934;2024-01-07T07:08:19;6.40;99.90
18733;DHT22;9495;51.210;2.934;2024-01-07T07:10:47;6.30;99.90
18733;DHT22;9495;51.210;2.934;2024-01-07T07:13:16;6.30;99.90
18733;DHT22;9495;51.210;2.934;2024-01-07T07:15:44;6.20;99.90
18733;DHT22;9495;51.210;2.934;2024-01-07T07:18:14;6.10;99.90
18733;DHT22;9495;51.210;2.934;2024-01-07T07:20:43;6.10;99.90
18733;DHT22;9495;51.210;2.934;2024-01-07T07:23:12;5.90;99.90
18733;DHT22;9495;51.210;2.934;2024-01-07T07:25:40;5.90;99.90
18733;DHT22;9495;51.210;2.934;2024-01-07T07:28:09;5.90;99.90
18733;DHT22;9495;51.210;2.934;2024-01-07T07:30:38;5.80;99.90
18733;DHT22;9495;51.210;2.934;2024-01-07T07:33:07;5.70;99.90
18733;DHT22;9495;51.210;2.934;2024-01-07T07:35:36;5.80;99.90
18733;DHT22;9495;51.210;2.934;2024-01-07T07:38:07;5.80;99.90
18733;DHT22;9495;51.210;2.934;2024-01-07T07:40:35;5.80;99.90
18733;DHT22;9495;51.210;2.934;2024-01-07T07:43:04;5.80;99.90
18733;DHT22;9495;51.210;2.934;2024-01-07T07:45:32;5.80;99.90
18733;DHT22;9495;51.210;2.934;2024-01-07T07:48:01;6.20;99.90
18733;DHT22;9495;51.210;2.934;2024-01-07T07:50:30;6.00;99.90
18733;DHT22;9495;51.210;2.934;2024-01-07T07:53:00;5.90;99.90
18733;DHT22;9495;51.210;2.934;2024-01-07T07:55:29;5.80;99.90
18733;DHT22;9495;51.210;2.934;2024-01-07T07:57:58;5.80;99.90
18733;DHT22;9495;51.210;2.934;2024-01-07T08:00:27;5.70;99.90
18733;DHT22;9495;51.210;2.934;2024-01-07T08:02:55;5.80;99.90
18733;DHT22;9495;51.210;2.934;2024-01-07T08:05:24;6.00;99.90
18733;DHT22;9495;51.210;2.934;2024-01-07T08:07:53;5.90;99.90
18733;DHT22;9495;51.210;2.934;2024-01-07T08:10:23;5.90;99.90
18733;DHT22;9495;51.210;2.934;2024-01-07T08:12:52;5.90;99.90
18733;DHT22;9495;51.210;2.934;2024-01-07T08:15:20;5.90;99.90
18733;DHT22;9495;51.210;2.934;2024-01-07T08:17:48;6.00;99.90
18733;DHT22;9495;51.210;2.934;2024-01-07T08:20:18;5.80;99.90
18733;DHT22;9495;51.210;2.934;2024-01-07T08:22:47;5.70;99.90
18733;DHT22;9495;51.210;2.934;2024-01-07T08:25:17;5.70;99.90
18733;DHT22;9495;51.210;2.934;2024-01-07T08:27:47;5.70;99.90
18733;DHT22;9495;51.210;2.934;2024-01-07T08:30:19;5.70;99.90
18733;DHT22;9495;51.210;2.934;2024-01-07T08:32:47;5.80;99.90
18733;DHT22;9495;51.210;2.934;2024-01-07T08:35:16;5.70;99.90
18733;DHT22;9495;51.210;2.934;2024-01-07T08:37:47;5.90;99.90
18733;DHT22;9495;51.210;2.934;2024-01-07T08:40:16;5.70;99.90
18733;DHT22;9495;51.210;2.934;2024-01-07T08:42:47;5.70;99.90
18733;DHT22;9495;51.210;2.934;2024-01-07T08:45:16;5.50;99.90
18733;DHT22;9495;51.210;2.934;2024-01-07T08:47:46;5.40;99.90
18733;DHT22;9495;51.210;2.934;2024-01-07T08:50:14;5.40;99.90
18733;DHT22;9495;51.210;2.934;2024-01-07T08:52:43;5.40;99.90
18733;DHT22;9495;51.210;2.934;2024-01-07T08:55:13;5.30;99.90
18733;DHT22;9495;51.210;2.934;2024-01-07T08:57:42;5.40;99.90
18733;DHT22;9495;51.210;2.934;2024-01-07T09:00:18;5.40;99.90
18733;DHT22;9495;51.210;2.934;2024-01-07T09:02:46;5.60;99.90
18733;DHT22;9495;51.210;2.934;2024-01-07T09:05:15;5.30;99.90
18733;DHT22;9495;51.210;2.934;2024-01-07T09:07:44;5.30;99.90
18733;DHT22;9495;51.210;2.934;2024-01-07T09:10:12;5.60;99.90
18733;DHT22;9495;51.210;2.934;2024-01-07T09:12:41;5.80;99.90
18733;DHT22;9495;51.210;2.934;2024-01-07T09:15:10;5.70;99.90
18733;DHT22;9495;51.210;2.934;2024-01-07T09:17:40;5.70;99.90
18733;DHT22;9495;51.210;2.934;2024-01-07T09:20:09;5.60;99.90
18733;DHT22;9495;51.210;2.934;2024-01-07T09:22:38;5.60;99.90
18733;DHT22;9495;51.210;2.934;2024-01-07T09:25:07;5.70;99.90
18733;DHT22;9495;51.210;2.934;2024-01-07T09:27:36;5.60;99.90
18733;DHT22;9495;51.210;2.934;2024-01-07T09:30:05;5.70;99.90
18733;DHT22;9495;51.210;2.934;2024-01-07T09:32:34;5.80;99.90
18733;DHT22;9495;51.210;2.934;2024-01-07T09:35:06;6.20;99.90
18733;DHT22;9495;51.210;2.934;2024-01-07T09:37:35;5.90;99.90
18733;DHT22;9495;51.210;2.934;2024-01-07T09:40:04;6.00;99.90
18733;DHT22;9495;51.210;2.934;2024-01-07T09:42:33;6.10;99.90
18733;DHT22;9495;51.210;2.934;2024-01-07T09:45:03;5.80;99.90
18733;DHT22;9495;51.210;2.934;2024-01-07T09:47:32;6.00;99.90
18733;DHT22;9495;51.210;2.934;2024-01-07T09:50:01;5.80;99.90
18733;DHT22;9495;51.210;2.934;2024-01-07T09:52:33;5.90;99.90
18733;DHT22;9495;51.210;2.934;2024-01-07T09:55:03;5.90;99.90
18733;DHT22;9495;51.210;2.934;2024-01-07T09:57:32;6.50;99.90
18733;DHT22;9495;51.210;2.934;2024-01-07T10:00:02;6.70;99.90
18733;DHT22;9495;51.210;2.934;2024-01-07T10:02:32;6.40;99.90
18733;DHT22;9495;51.210;2.934;2024-01-07T10:05:00;6.60;99.90
18733;DHT22;9495;51.210;2.934;2024-01-07T10:07:28;6.80;99.90
18733;DHT22;9495;51.210;2.934;2024-01-07T10:09:58;7.50;99.90
18733;DHT22;9495;51.210;2.934;2024-01-07T10:12:38;7.90;99.90
18733;DHT22;9495;51.210;2.934;2024-01-07T10:15:07;7.10;99.90
18733;DHT22;9495;51.210;2.934;2024-01-07T10:17:35;6.40;99.90
18733;DHT22;9495;51.210;2.934;2024-01-07T10:20:06;6.40;99.90
18733;DHT22;9495;51.210;2.934;2024-01-07T10:22:37;6.00;99.90
18733;DHT22;9495;51.210;2.934;2024-01-07T10:25:07;5.80;99.90
18733;DHT22;9495;51.210;2.934;2024-01-07T10:27:36;6.00;99.90
18733;DHT22;9495;51.210;2.934;2024-01-07T10:30:06;5.80;99.90
18733;DHT22;9495;51.210;2.934;2024-01-07T10:32:35;5.70;99.90
18733;DHT22;9495;51.210;2.934;2024-01-07T10:35:12;6.50;99.90
18733;DHT22;9495;51.210;2.934;2024-01-07T10:37:43;6.30;99.90
18733;DHT22;9495;51.210;2.934;2024-01-07T10:40:13;5.90;99.90
18733;DHT22;9495;51.210;2.934;2024-01-07T10:42:43;5.60;99.90
18733;DHT22;9495;51.210;2.934;2024-01-07T10:45:12;5.60;99.90
18733;DHT22;9495;51.210;2.934;2024-01-07T10:47:43;5.90;99.90
18733;DHT22;9495;51.210;2.934;2024-01-07T10:50:16;6.10;99.90
18733;DHT22;9495;51.210;2.934;2024-01-07T10:52:49;5.80;99.90
18733;DHT22;9495;51.210;2.934;2024-01-07T10:55:23;5.70;99.90
18733;DHT22;9495;51.210;2.934;2024-01-07T10:57:54;6.00;99.90
18733;DHT22;9495;51.210;2.934;2024-01-07T11:00:24;5.70;99.90
18733;DHT22;9495;51.210;2.934;2024-01-07T11:03:11;8.30;99.90
18733;DHT22;9495;51.210;2.934;2024-01-07T11:05:47;7.10;99.90
18733;DHT22;9495;51.210;2.934;2024-01-07T11:08:21;6.50;99.90
18733;DHT22;9495;51.210;2.934;2024-01-07T11:10:59;5.70;99.90
18733;DHT22;9495;51.210;2.934;2024-01-07T11:13:32;5.10;99.90
18733;DHT22;9495;51.210;2.934;2024-01-07T11:16:02;4.80;99.90
18733;DHT22;9495;51.210;2.934;2024-01-07T11:18:31;4.80;99.90
18733;DHT22;9495;51.210;2.934;2024-01-07T11:21:01;4.60;99.90
18733;DHT22;9495;51.210;2.934;2024-01-07T11:23:31;4.50;99.90
18733;DHT22;9495;51.210;2.934;2024-01-07T11:26:01;4.60;99.90
18733;DHT22;9495;51.210;2.934;2024-01-07T11:28:50;4.50;99.90
18733;DHT22;9495;51.210;2.934;2024-01-07T11:31:20;4.50;99.90
18733;DHT22;9495;51.210;2.934;2024-01-07T11:33:50;4.40;99.90
18733;DHT22;9495;51.210;2.934;2024-01-07T11:36:19;4.40;99.90
18733;DHT22;9495;51.210;2.934;2024-01-07T11:38:48;4.40;99.90
18733;DHT22;9495;51.210;2.934;2024-01-07T11:41:23;4.40;99.90
18733;DHT22;9495;51.210;2.934;2024-01-07T11:43:53;4.40;99.90
18733;DHT22;9495;51.210;2.934;2024-01-07T11:46:23;4.30;99.90
18733;DHT22;9495;51.210;2.934;2024-01-07T11:48:53;4.30;99.90
18733;DHT22;9495;51.210;2.934;2024-01-07T11:51:26;4.40;99.90
18733;DHT22;9495;51.210;2.934;2024-01-07T11:53:55;4.50;99.90
18733;DHT22;9495;51.210;2.934;2024-01-07T11:56:25;4.40;99.90
18733;DHT22;9495;51.210;2.934;2024-01-07T11:58:54;4.40;99.90
18733;DHT22;9495;51.210;2.934;2024-01-07T12:01:23;4.40;99.90
18733;DHT22;9495;51.210;2.934;2024-01-07T12:03:54;4.40;99.90
18733;DHT22;9495;51.210;2.934;2024-01-07T12:06:23;4.50;99.90
18733;DHT22;9495;51.210;2.934;2024-01-07T12:08:52;4.30;99.90
18733;DHT22;9495;51.210;2.934;2024-01-07T12:11:21;4.30;99.90
18733;DHT22;9495;51.210;2.934;2024-01-07T12:13:52;4.30;99.90
18733;DHT22;9495;51.210;2.934;2024-01-07T12:16:21;4.30;99.90
18733;DHT22;9495;51.210;2.934;2024-01-07T12:18:49;4.30;99.90
18733;DHT22;9495;51.210;2.934;2024-01-07T12:21:21;4.30;99.90
18733;DHT22;9495;51.210;2.934;2024-01-07T12:23:50;4.30;99.90
18733;DHT22;9495;51.210;2.934;2024-01-07T12:26:19;4.40;99.90
18733;DHT22;9495;51.210;2.934;2024-01-07T12:28:54;4.20;99.90
18733;DHT22;9495;51.210;2.934;2024-01-07T12:31:24;4.30;99.90
18733;DHT22;9495;51.210;2.934;2024-01-07T12:33:54;4.30;99.90
18733;DHT22;9495;51.210;2.934;2024-01-07T12:36:23;4.20;99.90
18733;DHT22;9495;51.210;2.934;2024-01-07T12:38:52;4.20;99.90
18733;DHT22;9495;51.210;2.934;2024-01-07T12:41:22;4.20;99.90
18733;DHT22;9495;51.210;2.934;2024-01-07T12:43:51;4.30;99.90
18733;DHT22;9495;51.210;2.934;2024-01-07T12:46:20;4.20;99.90
18733;DHT22;9495;51.210;2.934;2024-01-07T12:48:49;4.20;99.90
18733;DHT22;9495;51.210;2.934;2024-01-07T12:51:18;4.10;99.90
18733;DHT22;9495;51.210;2.934;2024-01-07T12:53:50;4.10;99.90
18733;DHT22;9495;51.210;2.934;2024-01-07T12:56:19;4.10;99.90
18733;DHT22;9495;51.210;2.934;2024-01-07T12:58:47;4.20;99.90
18733;DHT22;9495;51.210;2.934;2024-01-07T13:01:16;4.00;99.90
18733;DHT22;9495;51.210;2.934;2024-01-07T13:03:46;4.00;99.90
18733;DHT22;9495;51.210;2.934;2024-01-07T13:06:16;4.10;99.90
18733;DHT22;9495;51.210;2.934;2024-01-07T13:08:45;4.00;99.90
18733;DHT22;9495;51.210;2.934;2024-01-07T13:11:14;4.00;99.90
18733;DHT22;9495;51.210;2.934;2024-01-07T13:13:43;4.00;99.90
18733;DHT22;9495;51.210;2.934;2024-01-07T13:16:12;4.00;99.90
18733;DHT22;9495;51.210;2.934;2024-01-07T13:18:41;3.90;99.90
18733;DHT22;9495;51.210;2.934;2024-01-07T13:21:11;3.90;99.90
18733;DHT22;9495;51.210;2.934;2024-01-07T13:23:39;3.90;99.90
18733;DHT22;9495;51.210;2.934;2024-01-07T13:26:11;3.90;99.90
18733;DHT22;9495;51.210;2.934;2024-01-07T13:28:40;3.80;99.90
18733;DHT22;9495;51.210;2.934;2024-01-07T13:31:08;3.90;99.90
18733;DHT22;9495;51.210;2.934;2024-01-07T13:33:39;3.80;99.90
18733;DHT22;9495;51.210;2.934;2024-01-07T13:36:09;3.80;99.90
18733;DHT22;9495;51.210;2.934;2024-01-07T13:38:40;4.10;99.90
18733;DHT22;9495;51.210;2.934;2024-01-07T13:41:11;4.40;99.90
18733;DHT22;9495;51.210;2.934;2024-01-07T13:43:41;4.40;99.90
18733;DHT22;9495;51.210;2.934;2024-01-07T13:46:10;4.50;99.90
18733;DHT22;9495;51.210;2.934;2024-01-07T13:48:39;4.50;99.90
18733;DHT22;9495;51.210;2.934;2024-01-07T13:51:11;4.60;99.90
18733;DHT22;9495;51.210;2.934;2024-01-07T13:53:40;4.70;99.90
18733;DHT22;9495;51.210;2.934;2024-01-07T13:56:08;4.70;99.90
18733;DHT22;9495;51.210;2.934;2024-01-07T13:58:36;4.60;99.90
18733;DHT22;9495;51.210;2.934;2024-01-07T14:01:06;5.00;99.90
18733;DHT22;9495;51.210;2.934;2024-01-07T14:03:35;4.80;99.90
18733;DHT22;9495;51.210;2.934;2024-01-07T14:06:03;4.90;99.90
18733;DHT22;9495;51.210;2.934;2024-01-07T14:08:34;4.70;99.90
18733;DHT22;9495;51.210;2.934;2024-01-07T14:11:02;4.60;99.90
18733;DHT22;9495;51.210;2.934;2024-01-07T14:13:31;4.50;99.90
18733;DHT22;9495;51.210;2.934;2024-01-07T14:15:59;4.60;99.90
18733;DHT22;9495;51.210;2.934;2024-01-07T14:18:28;4.80;99.90
18733;DHT22;9495;51.210;2.934;2024-01-07T14:20:57;5.00;99.90
18733;DHT22;9495;51.210;2.934;2024-01-07T14:23:26;4.90;99.90
18733;DHT22;9495;51.210;2.934;2024-01-07T14:25:58;4.50;99.90
18733;DHT22;9495;51.210;2.934;2024-01-07T14:28:27;4.80;99.90
18733;DHT22;9495;51.210;2.934;2024-01-07T14:30:55;4.70;99.90
18733;DHT22;9495;51.210;2.934;2024-01-07T14:33:25;4.60;99.90
18733;DHT22;9495;51.210;2.934;2024-01-07T14:35:54;4.60;99.90
18733;DHT22;9495;51.210;2.934;2024-01-07T14:38:22;5.80;99.90
18733;DHT22;9495;51.210;2.934;2024-01-07T14:40:52;5.10;99.90
18733;DHT22;9495;51.210;2.934;2024-01-07T14:43:22;4.80;99.90
18733;DHT22;9495;51.210;2.934;2024-01-07T14:45:51;4.60;99.90
18733;DHT22;9495;51.210;2.934;2024-01-07T14:48:19;4.70;99.90
18733;DHT22;9495;51.210;2.934;2024-01-07T14:50:49;5.10;99.90
18733;DHT22;9495;51.210;2.934;2024-01-07T14:53:18;7.90;99.90
18733;DHT22;9495;51.210;2.934;2024-01-07T14:55:47;8.60;99.90
18733;DHT22;9495;51.210;2.934;2024-01-07T14:58:15;8.10;99.90
18733;DHT22;9495;51.210;2.934;2024-01-07T15:00:46;6.50;99.90
18733;DHT22;9495;51.210;2.934;2024-01-07T15:03:16;5.70;99.90
18733;DHT22;9495;51.210;2.934;2024-01-07T15:05:46;5.30;99.90
18733;DHT22;9495;51.210;2.934;2024-01-07T15:08:15;5.10;99.90
18733;DHT22;9495;51.210;2.934;2024-01-07T15:10:45;5.00;99.90
18733;DHT22;9495;51.210;2.934;2024-01-07T15:13:14;4.80;99.90
18733;DHT22;9495;51.210;2.934;2024-01-07T15:15:48;4.60;99.90
18733;DHT22;9495;51.210;2.934;2024-01-07T15:18:17;4.70;99.90
18733;DHT22;9495;51.210;2.934;2024-01-07T15:20:45;4.70;99.90
18733;DHT22;9495;51.210;2.934;2024-01-07T15:23:14;4.80;99.90
18733;DHT22;9495;51.210;2.934;2024-01-07T15:25:43;4.80;99.90
18733;DHT22;9495;51.210;2.934;2024-01-07T15:28:12;4.60;99.90
18733;DHT22;9495;51.210;2.934;2024-01-07T15:30:41;4.60;99.90
18733;DHT22;9495;51.210;2.934;2024-01-07T15:33:11;4.60;99.90
18733;DHT22;9495;51.210;2.934;2024-01-07T15:35:40;4.50;99.90
18733;DHT22;9495;51.210;2.934;2024-01-07T15:38:08;4.50;99.90
18733;DHT22;9495;51.210;2.934;2024-01-07T15:40:36;4.50;99.90
18733;DHT22;9495;51.210;2.934;2024-01-07T15:43:05;4.30;99.90
18733;DHT22;9495;51.210;2.934;2024-01-07T15:45:34;5.10;99.90
18733;DHT22;9495;51.210;2.934;2024-01-07T15:48:03;4.50;99.90
18733;DHT22;9495;51.210;2.934;2024-01-07T15:50:34;4.30;99.90
18733;DHT22;9495;51.210;2.934;2024-01-07T15:53:02;4.20;99.90
18733;DHT22;9495;51.210;2.934;2024-01-07T15:55:34;4.50;99.90
18733;DHT22;9495;51.210;2.934;2024-01-07T15:58:03;4.30;99.90
18733;DHT22;9495;51.210;2.934;2024-01-07T16:00:31;4.20;99.90
18733;DHT22;9495;51.210;2.934;2024-01-07T16:03:00;4.20;99.90
18733;DHT22;9495;51.210;2.934;2024-01-07T16:05:29;4.30;99.90
18733;DHT22;9495;51.210;2.934;2024-01-07T16:07:59;4.20;99.90
18733;DHT22;9495;51.210;2.934;2024-01-07T16:10:27;4.60;99.90
18733;DHT22;9495;51.210;2.934;2024-01-07T16:12:56;4.20;99.90
18733;DHT22;9495;51.210;2.934;2024-01-07T16:15:25;4.10;99.90